Time;durP1;ratioP1;P1;durP2;ratioP2;P2;SDS_P1;SDS_P2;PMS_P1;PMS_P2;Temp;Humidity;BMP_temperature;BMP_pressure;BME280_temperature;BME280_humidity;BME280_pressure;Samples;Min_cycle;Max_cycle;Signal;HPM_P1;HPM_P2
2022/12/23 00:00:29;;;;;;;1.50;1.20;;;23.90;46.20;;;-142.21;100.00;57916.31;5072366;28;20266;-77
2022/12/23 00:02:56;;;;;;;1.50;1.40;;;23.90;46.40;;;-142.21;100.00;57916.31;5072594;28;20192;-78
2022/12/23 00:05:24;;;;;;;1.83;1.20;;;23.90;46.30;;;-142.21;100.00;57916.31;5072729;28;20226;-78
2022/12/23 00:07:52;;;;;;;2.17;1.50;;;23.80;46.30;;;-142.21;100.00;57916.31;5072293;28;20209;-78
2022/12/23 00:10:20;;;;;;;1.77;1.37;;;23.80;46.30;;;-142.21;100.00;57916.31;5071774;28;20292;-77
2022/12/23 00:15:31;;;;;;;2.03;1.10;;;23.80;46.40;;;-142.21;100.00;57916.31;5072341;28;20193;-77
2022/12/23 00:17:59;;;;;;;1.23;1.03;;;23.80;46.40;;;-142.21;100.00;57916.31;5071946;28;20200;-77
2022/12/23 00:20:26;;;;;;;1.67;1.20;;;23.80;46.60;;;-142.21;100.00;57916.31;5072377;28;20244;-79
2022/12/23 00:23:07;;;;;;;2.03;1.30;;;23.80;46.40;;;-142.21;100.00;57916.31;5071484;28;20292;-77
2022/12/23 00:25:43;;;;;;;1.87;1.30;;;23.80;46.60;;;-142.21;100.00;57916.31;5071381;28;20699;-79
2022/12/23 00:28:14;;;;;;;1.27;1.10;;;23.80;46.60;;;-142.21;100.00;57916.31;5072394;28;20211;-78
2022/12/23 00:30:58;;;;;;;1.30;1.20;;;23.80;46.60;;;-142.21;100.00;57916.31;5071269;28;20220;-80
2022/12/23 00:33:28;;;;;;;2.23;1.30;;;23.80;46.60;;;-142.21;100.00;57916.31;5071653;28;20193;-79
2022/12/23 00:36:12;;;;;;;1.70;1.20;;;23.80;46.70;;;-142.21;100.00;57916.31;5071077;28;20703;-78
2022/12/23 00:44:11;;;;;;;1.87;1.30;;;23.80;46.70;;;-142.21;100.00;57916.31;5071021;28;20181;-78
2022/12/23 00:46:38;;;;;;;1.87;1.40;;;23.80;46.70;;;-142.21;100.00;57916.31;5071123;28;20204;-78
2022/12/23 00:51:50;;;;;;;1.23;1.10;;;23.80;46.80;;;-142.21;100.00;57916.31;5071108;28;20244;-78
2022/12/23 00:54:20;;;;;;;2.23;1.00;;;23.80;46.90;;;-142.21;100.00;57916.31;5071591;28;20205;-78
2022/12/23 00:56:47;;;;;;;0.97;0.80;;;23.80;46.90;;;-142.21;100.00;57916.31;5071307;28;20541;-78
2022/12/23 00:59:14;;;;;;;1.43;1.10;;;23.80;46.80;;;-142.21;100.00;57916.31;5071441;28;20222;-77
2022/12/23 01:07:11;;;;;;;2.20;1.17;;;23.80;46.90;;;-142.21;100.00;57916.31;5071183;28;20319;-77
2022/12/23 01:09:40;;;;;;;1.07;0.97;;;23.80;47.00;;;-142.21;100.00;57916.31;5070749;28;20613;-78
2022/12/23 01:12:07;;;;;;;1.20;0.80;;;23.80;47.10;;;-142.21;100.00;57916.31;5071476;28;20201;-79
2022/12/23 01:14:35;;;;;;;1.50;0.90;;;23.80;47.10;;;-142.21;100.00;57916.31;5071211;28;20661;-78
2022/12/23 01:17:02;;;;;;;1.37;1.00;;;23.80;47.00;;;-142.21;100.00;57916.31;5071359;28;20685;-78
2022/12/23 01:19:30;;;;;;;1.50;1.10;;;23.80;47.00;;;-142.21;100.00;57916.31;5055156;28;20258;-78
2022/12/23 01:21:57;;;;;;;1.03;0.80;;;23.90;47.10;;;-142.21;100.00;57916.31;5052650;28;20629;-78
2022/12/23 01:24:28;;;;;;;2.00;1.07;;;23.90;47.20;;;-142.21;100.00;57916.31;5071421;28;20235;-78
2022/12/23 01:26:58;;;;;;;1.60;1.37;;;23.80;47.20;;;-142.21;100.00;57916.31;5070797;28;20292;-78
2022/12/23 01:29:26;;;;;;;1.37;1.10;;;23.80;47.20;;;-142.21;100.00;57916.31;5071615;28;20189;-78
2022/12/23 01:31:53;;;;;;;1.60;1.03;;;23.90;47.30;;;-142.21;100.00;57916.31;5070919;28;20295;-78
2022/12/23 01:34:20;;;;;;;1.30;1.03;;;23.80;47.20;;;-142.21;100.00;57916.31;5070787;28;20200;-78
2022/12/23 01:36:47;;;;;;;1.80;1.07;;;23.80;47.20;;;-142.21;100.00;57916.31;5070910;28;20295;-79
2022/12/23 01:39:14;;;;;;;1.00;0.80;;;23.90;47.40;;;-142.21;100.00;57916.31;5071366;28;20311;-78
2022/12/23 01:44:56;;;;;;;2.03;0.97;;;23.90;47.30;;;-142.21;100.00;57916.31;5071132;28;20671;-79
2022/12/23 01:47:31;;;;;;;2.00;0.67;;;23.90;47.50;;;-142.21;100.00;57916.31;5071186;28;20200;-79
2022/12/23 01:50:09;;;;;;;1.33;1.00;;;23.90;47.50;;;-142.21;100.00;57916.31;5070316;28;20199;-78
2022/12/23 01:52:47;;;;;;;1.10;1.00;;;23.90;47.50;;;-142.21;100.00;57916.31;5070808;28;20185;-78
2022/12/23 01:55:20;;;;;;;0.80;0.80;;;23.90;47.50;;;-142.21;100.00;57916.31;5073676;28;20185;-78
2022/12/23 01:57:48;;;;;;;1.07;0.80;;;23.90;47.50;;;-142.21;100.00;57916.31;5074231;28;20189;-78
2022/12/23 02:05:48;;;;;;;1.70;1.07;;;23.90;47.40;;;-142.21;100.00;57916.31;5064733;28;20290;-78
2022/12/23 02:11:30;;;;;;;1.00;0.90;;;24.00;47.70;;;-142.21;100.00;57916.31;5073745;28;20574;-78
2022/12/23 02:17:16;;;;;;;0.90;0.87;;;24.00;47.80;;;-142.21;100.00;57916.31;5074100;28;20699;-78
2022/12/23 02:20:37;;;;;;;1.67;1.00;;;23.90;47.70;;;-142.21;100.00;57916.31;5073375;28;20192;-78
2022/12/23 02:23:34;;;;;;;0.70;0.67;;;23.90;47.70;;;-142.21;100.00;57916.31;5074775;28;20550;-78
2022/12/23 02:26:35;;;;;;;1.27;0.90;;;23.90;47.80;;;-142.21;100.00;57916.31;5074129;28;20294;-78
2022/12/23 02:29:48;;;;;;;1.37;1.07;;;24.00;48.30;;;-142.21;100.00;57916.31;5070028;28;20208;-78
2022/12/23 02:32:29;;;;;;;1.10;1.00;;;24.00;48.10;;;-142.21;100.00;57916.31;5041876;28;20301;-78
2022/12/23 02:35:06;;;;;;;0.93;0.90;;;24.00;48.70;;;-142.21;100.00;57916.31;5073458;28;20194;-78
2022/12/23 02:37:40;;;;;;;1.10;0.70;;;24.00;48.00;;;-142.21;100.00;57916.31;5074061;28;20302;-78
2022/12/23 02:40:24;;;;;;;1.73;0.90;;;24.00;48.10;;;-142.21;100.00;57916.31;5040250;28;20230;-79
2022/12/23 02:43:00;;;;;;;0.87;0.70;;;24.00;48.10;;;-142.21;100.00;57916.31;5053756;28;20236;-78
2022/12/23 02:45:36;;;;;;;1.23;0.83;;;24.00;48.10;;;-142.21;100.00;57916.31;5054299;28;20193;-79
2022/12/23 02:48:13;;;;;;;1.23;0.90;;;24.00;48.10;;;-142.21;100.00;57916.31;5053295;28;20199;-79
2022/12/23 02:50:44;;;;;;;1.17;1.07;;;24.00;48.10;;;-142.21;100.00;57916.31;5053950;28;20193;-79
2022/12/23 02:53:21;;;;;;;0.97;0.87;;;24.00;48.10;;;-142.21;100.00;57916.31;5062429;28;20694;-78
2022/12/23 02:55:54;;;;;;;0.77;0.77;;;24.00;48.10;;;-142.21;100.00;57916.31;5073080;28;20265;-79
2022/12/23 02:58:29;;;;;;;1.00;0.90;;;24.00;48.10;;;-142.21;100.00;57916.31;5074212;28;20189;-78
2022/12/23 03:01:02;;;;;;;0.93;0.80;;;24.00;48.10;;;-142.21;100.00;57916.31;5072807;28;20246;-78
2022/12/23 03:03:32;;;;;;;1.30;0.73;;;24.00;48.10;;;-142.21;100.00;57916.31;5073559;28;20227;-78
2022/12/23 03:05:59;;;;;;;0.83;0.83;;;24.00;48.10;;;-142.21;100.00;57916.31;5071695;28;20201;-77
2022/12/23 03:08:34;;;;;;;0.67;0.67;;;24.00;48.10;;;-142.21;100.00;57916.31;5073801;28;20211;-79
2022/12/23 03:11:06;;;;;;;0.90;0.80;;;24.00;48.10;;;-142.21;100.00;57916.31;5073480;28;20299;-78
2022/12/23 03:14:07;;;;;;;0.80;0.80;;;24.00;48.10;;;-142.21;100.00;57916.31;5073966;28;20197;-78
2022/12/23 03:16:50;;;;;;;0.70;0.70;;;24.00;48.10;;;-142.21;100.00;57916.31;5073892;28;20214;-79
2022/12/23 03:19:30;;;;;;;0.80;0.70;;;24.00;48.10;;;-142.21;100.00;57916.31;5058651;28;20222;-77
2022/12/23 03:22:09;;;;;;;0.90;0.80;;;24.00;48.10;;;-142.21;100.00;57916.31;5052781;28;20297;-79
2022/12/23 03:24:47;;;;;;;0.93;0.80;;;24.00;48.10;;;-142.21;100.00;57916.31;5069995;28;20193;-78
2022/12/23 03:27:22;;;;;;;1.03;0.77;;;24.00;48.10;;;-142.21;100.00;57916.31;5073623;28;20191;-78
2022/12/23 03:29:57;;;;;;;0.80;0.80;;;24.00;48.10;;;-142.21;100.00;57916.31;5073140;28;20185;-78
2022/12/23 03:32:29;;;;;;;0.60;0.60;;;24.00;48.10;;;-142.21;100.00;57916.31;5072768;28;20714;-78
2022/12/23 03:35:02;;;;;;;0.80;0.80;;;24.10;48.10;;;-142.21;100.00;57916.31;5072537;28;20219;-79
2022/12/23 03:37:34;;;;;;;1.20;0.80;;;24.00;48.10;;;-142.21;100.00;57916.31;5073062;28;20192;-79
2022/12/23 03:40:10;;;;;;;0.70;0.70;;;24.00;48.10;;;-142.21;100.00;57916.31;5072501;28;20288;-79
2022/12/23 03:42:41;;;;;;;0.80;0.80;;;24.10;48.10;;;-142.21;100.00;57916.31;5073062;28;20224;-79
2022/12/23 03:45:17;;;;;;;0.80;0.80;;;24.10;48.10;;;-142.21;100.00;57916.31;5073162;28;20195;-79
2022/12/23 03:47:51;;;;;;;0.70;0.70;;;24.10;48.10;;;-142.21;100.00;57916.31;5071834;28;20640;-79
2022/12/23 03:50:23;;;;;;;0.60;0.60;;;24.10;48.10;;;-142.21;100.00;57916.31;5055883;28;20199;-79
2022/12/23 03:52:58;;;;;;;0.90;0.73;;;24.10;48.10;;;-142.21;100.00;57916.31;5072364;28;20185;-78
2022/12/23 03:55:32;;;;;;;0.87;0.87;;;24.10;48.10;;;-142.21;100.00;57916.31;5072597;28;20184;-78
2022/12/23 03:58:07;;;;;;;1.27;0.80;;;24.10;48.20;;;-142.21;100.00;57916.31;5072077;28;20196;-79
2022/12/23 04:00:44;;;;;;;0.83;0.83;;;24.10;48.10;;;-142.21;100.00;57916.31;5071927;28;20225;-78
2022/12/23 04:03:21;;;;;;;0.70;0.70;;;24.10;48.20;;;-142.21;100.00;57916.31;5072219;28;20215;-79
2022/12/23 04:05:56;;;;;;;1.10;0.80;;;24.10;48.10;;;-142.21;100.00;57916.31;5072004;28;20610;-78
2022/12/23 04:08:30;;;;;;;0.57;0.50;;;24.10;48.10;;;-142.21;100.00;57916.31;5072599;28;20193;-79
2022/12/23 04:10:58;;;;;;;0.60;0.60;;;24.10;48.80;;;-142.21;100.00;57916.31;5071952;28;20197;-79
2022/12/23 04:13:29;;;;;;;0.70;0.70;;;24.10;48.10;;;-142.21;100.00;57916.31;5054133;28;20562;-79
2022/12/23 04:15:59;;;;;;;1.17;0.60;;;24.10;48.10;;;-142.21;100.00;57916.31;5071524;28;20551;-79
2022/12/23 04:18:26;;;;;;;0.50;0.50;;;24.10;48.10;;;-142.21;100.00;57916.31;5064222;28;20679;-79
2022/12/23 04:20:55;;;;;;;0.63;0.40;;;24.10;48.10;;;-142.21;100.00;57916.31;5051791;28;20217;-77
2022/12/23 04:23:22;;;;;;;1.07;0.97;;;24.10;48.10;;;-142.21;100.00;57916.31;5059762;28;20224;-79
2022/12/23 04:25:49;;;;;;;0.70;0.70;;;24.10;48.10;;;-142.21;100.00;57916.31;5054205;28;20301;-79
2022/12/23 04:28:18;;;;;;;0.70;0.70;;;24.10;48.10;;;-142.21;100.00;57916.31;5071607;28;20292;-78
2022/12/23 04:30:45;;;;;;;0.70;0.70;;;24.10;48.10;;;-142.21;100.00;57916.31;5071928;28;20201;-79
2022/12/23 04:33:13;;;;;;;0.80;0.80;;;24.10;48.10;;;-142.21;100.00;57916.31;5072084;28;20211;-78
2022/12/23 04:35:40;;;;;;;1.20;1.10;;;24.20;48.20;;;-142.21;100.00;57916.31;5071690;28;20201;-79
2022/12/23 04:38:09;;;;;;;1.13;0.97;;;24.20;48.20;;;-142.21;100.00;57916.31;5071628;28;20213;-79
2022/12/23 04:40:36;;;;;;;0.80;0.80;;;24.10;48.10;;;-142.21;100.00;57916.31;5071832;28;20267;-78
2022/12/23 04:43:03;;;;;;;0.80;0.80;;;24.10;48.10;;;-142.21;100.00;57916.31;5070820;28;20236;-79
2022/12/23 04:45:30;;;;;;;0.80;0.80;;;24.10;48.10;;;-142.21;100.00;57916.31;5071824;28;20299;-78
2022/12/23 04:47:57;;;;;;;0.73;0.73;;;24.20;48.20;;;-142.21;100.00;57916.31;5071045;28;20201;-79
2022/12/23 04:50:24;;;;;;;1.37;1.00;;;24.10;48.10;;;-142.21;100.00;57916.31;5071433;28;20296;-79
2022/12/23 04:52:51;;;;;;;1.23;0.90;;;24.10;48.10;;;-142.21;100.00;57916.31;5071358;28;20244;-78
2022/12/23 04:55:20;;;;;;;1.00;1.00;;;24.10;48.10;;;-142.21;100.00;57916.31;5071894;28;20292;-79
2022/12/23 04:57:47;;;;;;;1.03;0.93;;;24.10;48.10;;;-142.21;100.00;57916.31;5070941;28;20695;-78
2022/12/23 05:00:15;;;;;;;1.60;0.83;;;24.10;48.10;;;-142.21;100.00;57916.31;5071469;28;20204;-78
2022/12/23 05:02:43;;;;;;;1.83;1.20;;;24.20;48.20;;;-142.21;100.00;57916.31;5071483;28;20220;-80
2022/12/23 05:05:10;;;;;;;0.87;0.87;;;24.10;48.10;;;-142.21;100.00;57916.31;5071151;28;20215;-79
2022/12/23 05:07:37;;;;;;;1.40;1.30;;;24.10;48.10;;;-142.21;100.00;57916.31;5071704;28;20561;-79
2022/12/23 05:10:05;;;;;;;2.20;1.43;;;24.20;48.20;;;-142.21;100.00;57916.31;5070832;28;20201;-79
2022/12/23 05:12:33;;;;;;;1.90;1.70;;;24.10;48.10;;;-142.21;100.00;57916.31;5071219;28;20285;-78
2022/12/23 05:15:00;;;;;;;2.90;1.37;;;24.10;48.10;;;-142.21;100.00;57916.31;5071276;28;20292;-79
2022/12/23 05:17:27;;;;;;;1.47;1.37;;;24.20;48.20;;;-142.21;100.00;57916.31;5070939;28;20288;-79
2022/12/23 05:19:55;;;;;;;1.40;1.30;;;24.10;48.10;;;-142.21;100.00;57916.31;5070920;28;20204;-79
2022/12/23 05:22:22;;;;;;;1.50;1.40;;;24.10;48.10;;;-142.21;100.00;57916.31;5071474;28;20217;-78
2022/12/23 05:24:49;;;;;;;1.60;1.50;;;24.10;48.10;;;-142.21;100.00;57916.31;5070927;28;20232;-79
2022/12/23 05:27:16;;;;;;;1.27;1.17;;;24.20;48.20;;;-142.21;100.00;57916.31;5071307;28;20290;-79
2022/12/23 05:29:45;;;;;;;1.60;1.50;;;24.10;48.10;;;-142.21;100.00;57916.31;5070440;28;20661;-78
2022/12/23 05:32:12;;;;;;;1.17;1.03;;;24.20;48.20;;;-142.21;100.00;57916.31;5070791;28;20205;-79
2022/12/23 05:34:39;;;;;;;1.43;1.17;;;24.20;48.20;;;-142.21;100.00;57916.31;5070763;28;20239;-78
2022/12/23 05:37:07;;;;;;;1.80;1.23;;;24.10;48.10;;;-142.21;100.00;57916.31;5070737;28;20296;-80
2022/12/23 05:39:34;;;;;;;2.63;1.30;;;24.10;48.10;;;-142.21;100.00;57916.31;5071073;28;20299;-78
2022/12/23 05:42:01;;;;;;;1.07;1.00;;;24.10;48.10;;;-142.21;100.00;57916.31;5070672;28;20634;-79
2022/12/23 05:44:28;;;;;;;1.20;1.07;;;24.10;48.10;;;-142.21;100.00;57916.31;5070886;28;20209;-79
2022/12/23 05:46:57;;;;;;;1.30;1.20;;;24.20;48.10;;;-142.21;100.00;57916.31;5070227;28;20197;-78
2022/12/23 05:49:25;;;;;;;1.10;1.10;;;24.10;48.10;;;-142.21;100.00;57916.31;5071394;28;20625;-79
2022/12/23 05:51:52;;;;;;;0.90;0.90;;;24.10;48.10;;;-142.21;100.00;57916.31;5070686;28;20287;-78
2022/12/23 05:54:20;;;;;;;1.00;1.00;;;24.10;48.10;;;-142.21;100.00;57916.31;5071234;28;20219;-78
2022/12/23 05:56:47;;;;;;;1.13;1.00;;;24.20;48.20;;;-142.21;100.00;57916.31;5071318;28;20240;-78
2022/12/23 05:59:14;;;;;;;0.90;0.90;;;24.10;48.00;;;-142.21;100.00;57916.31;5069811;28;20201;-78
2022/12/23 06:01:41;;;;;;;1.20;1.10;;;24.20;48.20;;;-142.21;100.00;57916.31;5070840;28;20328;-79
2022/12/23 06:04:10;;;;;;;1.13;1.07;;;24.20;48.10;;;-142.21;100.00;57916.31;5070671;28;20211;-79
2022/12/23 06:06:37;;;;;;;1.63;1.10;;;24.20;48.20;;;-142.21;100.00;57916.31;5071084;28;20216;-79
2022/12/23 06:09:04;;;;;;;1.40;1.30;;;24.20;48.10;;;-142.21;100.00;57916.31;5070526;28;20201;-79
2022/12/23 06:11:32;;;;;;;1.60;1.50;;;24.20;48.10;;;-142.21;100.00;57916.31;5069966;28;20291;-78
2022/12/23 06:13:59;;;;;;;1.90;1.70;;;24.20;48.20;;;-142.21;100.00;57916.31;5069853;28;20286;-79
2022/12/23 06:16:28;;;;;;;1.90;1.27;;;24.20;48.10;;;-142.21;100.00;57916.31;5071092;28;20363;-79
2022/12/23 06:18:56;;;;;;;1.33;1.23;;;24.20;48.10;;;-142.21;100.00;57916.31;5069993;28;20211;-80
2022/12/23 06:21:25;;;;;;;2.20;1.60;;;24.20;48.10;;;-142.21;100.00;57916.31;5070618;28;20204;-79
2022/12/23 06:23:52;;;;;;;1.40;1.30;;;24.20;48.20;;;-142.21;100.00;57916.31;5069965;28;20227;-78
2022/12/23 06:26:19;;;;;;;2.83;2.53;;;24.20;48.10;;;-142.21;100.00;57916.31;5071013;28;20577;-78
2022/12/23 06:28:47;;;;;;;2.77;2.57;;;24.20;48.10;;;-142.21;100.00;57916.31;5070544;28;20300;-78
2022/12/23 06:31:14;;;;;;;2.80;2.57;;;24.20;48.10;;;-142.21;100.00;57916.31;5069949;28;20215;-79
2022/12/23 06:33:42;;;;;;;2.30;2.13;;;24.20;48.80;;;-142.21;100.00;57916.31;5070756;28;20217;-79
2022/12/23 06:36:10;;;;;;;2.03;1.93;;;24.20;48.10;;;-142.21;100.00;57916.31;5069877;28;20288;-78
2022/12/23 06:38:38;;;;;;;2.10;2.00;;;24.20;48.20;;;-142.21;100.00;57916.31;5052576;28;20300;-79
2022/12/23 06:41:06;;;;;;;2.47;1.90;;;24.20;48.10;;;-142.21;100.00;57916.31;5052804;28;20268;-79
2022/12/23 06:43:33;;;;;;;2.07;1.87;;;24.20;48.10;;;-142.21;100.00;57916.31;5074246;28;20248;-79
2022/12/23 06:46:01;;;;;;;1.80;1.70;;;24.20;48.10;;;-142.21;100.00;57916.31;5073773;28;20232;-78
2022/12/23 06:48:28;;;;;;;2.00;1.70;;;24.20;48.10;;;-142.21;100.00;57916.31;5074037;28;20201;-79
2022/12/23 06:50:55;;;;;;;2.87;1.80;;;24.20;48.10;;;-142.21;100.00;57916.31;5073773;28;20639;-80
2022/12/23 06:53:22;;;;;;;2.87;2.50;;;24.20;48.10;;;-142.21;100.00;57916.31;5073761;28;20251;-78
2022/12/23 06:55:59;;;;;;;2.00;1.80;;;24.20;48.10;;;-142.21;100.00;57916.31;5074074;28;20296;-79
2022/12/23 06:58:26;;;;;;;1.90;1.70;;;24.20;48.20;;;-142.21;100.00;57916.31;5055872;28;20275;-79
2022/12/23 07:00:54;;;;;;;3.07;2.77;;;24.20;48.00;;;-142.21;100.00;57916.31;5072778;28;20258;-79
2022/12/23 07:03:22;;;;;;;2.07;1.87;;;24.30;48.10;;;-142.21;100.00;57916.31;5073742;28;20228;-79
2022/12/23 07:06:14;;;;;;;3.17;2.30;;;24.20;48.10;;;-142.21;100.00;57916.31;5074079;28;20211;-79
2022/12/23 07:08:42;;;;;;;3.33;2.33;;;24.10;48.10;;;-142.21;100.00;57916.31;5073757;28;20205;-79
2022/12/23 07:11:10;;;;;;;2.20;2.00;;;24.10;48.00;;;-142.21;100.00;57916.31;5072756;28;20204;-79
2022/12/23 07:13:37;;;;;;;2.40;2.20;;;24.20;48.10;;;-142.21;100.00;57916.31;5073531;28;20201;-78
2022/12/23 07:16:07;;;;;;;1.87;1.70;;;24.20;48.10;;;-142.21;100.00;57916.31;5073221;28;20251;-78
2022/12/23 07:18:35;;;;;;;2.50;2.10;;;24.20;48.20;;;-142.21;100.00;57916.31;5073242;28;20220;-78
2022/12/23 07:21:03;;;;;;;2.13;1.93;;;24.20;48.20;;;-142.21;100.00;57916.31;5073140;28;20219;-78
2022/12/23 07:23:31;;;;;;;2.00;1.90;;;24.20;48.20;;;-142.21;100.00;57916.31;5073077;28;20650;-78
2022/12/23 07:25:59;;;;;;;1.90;1.80;;;24.20;48.20;;;-142.21;100.00;57916.31;5072584;28;20279;-79
2022/12/23 07:28:27;;;;;;;1.90;1.80;;;24.20;48.20;;;-142.21;100.00;57916.31;5073574;28;20262;-78
2022/12/23 07:30:55;;;;;;;2.70;2.50;;;24.20;48.10;;;-142.21;100.00;57916.31;5072583;28;20205;-79
2022/12/23 07:33:22;;;;;;;3.73;2.40;;;24.10;48.10;;;-142.21;100.00;57916.31;5073478;28;20205;-78
2022/12/23 07:35:49;;;;;;;2.57;2.37;;;24.10;48.00;;;-142.21;100.00;57916.31;5072989;28;20209;-78
2022/12/23 07:38:17;;;;;;;2.30;2.10;;;24.10;48.10;;;-142.21;100.00;57916.31;5072154;28;20249;-79
2022/12/23 07:40:48;;;;;;;2.33;2.13;;;24.10;48.10;;;-142.21;100.00;57916.31;5073355;28;20211;-79
2022/12/23 07:43:15;;;;;;;2.13;1.93;;;24.10;48.10;;;-142.21;100.00;57916.31;5072631;28;20246;-78
2022/12/23 07:45:44;;;;;;;2.10;1.90;;;24.10;48.10;;;-142.21;100.00;57916.31;5072823;28;20292;-78
2022/12/23 07:48:11;;;;;;;2.07;1.93;;;24.10;48.10;;;-142.21;100.00;57916.31;5072679;28;20205;-78
2022/12/23 07:50:41;;;;;;;3.03;1.90;;;24.10;48.10;;;-142.21;100.00;57916.31;5073042;28;20295;-78
2022/12/23 07:53:08;;;;;;;2.17;1.97;;;24.10;48.40;;;-142.21;100.00;57916.31;5071279;28;20288;-79
2022/12/23 07:55:35;;;;;;;2.40;2.20;;;24.10;48.40;;;-142.21;100.00;57916.31;5072787;28;20292;-79
2022/12/23 07:58:02;;;;;;;3.63;2.00;;;24.10;48.50;;;-142.21;100.00;57916.31;5053701;28;20206;-80
2022/12/23 08:00:30;;;;;;;2.50;2.30;;;24.10;48.50;;;-142.21;100.00;57916.31;5071911;28;20239;-77
2022/12/23 08:03:06;;;;;;;2.43;2.10;;;24.10;48.50;;;-142.21;100.00;57916.31;5072068;28;20216;-78
2022/12/23 08:05:33;;;;;;;2.13;1.93;;;24.10;48.70;;;-142.21;100.00;57916.31;5072486;28;20220;-78
2022/12/23 08:08:00;;;;;;;1.90;1.80;;;24.00;48.70;;;-142.21;100.00;57916.31;5072391;28;20287;-78
2022/12/23 08:10:28;;;;;;;2.07;1.80;;;24.10;48.90;;;-142.21;100.00;57916.31;5071877;28;20274;-78
2022/12/23 08:12:55;;;;;;;2.00;1.80;;;24.00;49.00;;;-142.21;100.00;57916.31;5072510;28;20205;-78
2022/12/23 08:15:22;;;;;;;2.33;1.70;;;24.00;49.00;;;-142.21;100.00;57916.31;5072652;28;20236;-78
2022/12/23 08:17:49;;;;;;;2.67;1.90;;;24.00;49.00;;;-142.21;100.00;57916.31;5072208;28;20198;-78
2022/12/23 08:20:18;;;;;;;1.90;1.70;;;24.00;49.00;;;-142.21;100.00;57916.31;5071456;28;20650;-79
2022/12/23 08:22:46;;;;;;;1.50;1.40;;;24.00;49.10;;;-142.21;100.00;57916.31;5071885;28;20300;-77
2022/12/23 08:25:13;;;;;;;1.60;1.30;;;24.10;49.00;;;-142.21;100.00;57916.31;5071551;28;20251;-78
2022/12/23 08:28:14;;;;;;;1.90;1.50;;;24.10;49.10;;;-142.21;100.00;57916.31;5071720;28;20669;-78
2022/12/23 08:31:08;;;;;;;1.67;1.57;;;24.10;49.30;;;-142.21;100.00;57916.31;5061487;28;20223;-77
2022/12/23 08:33:38;;;;;;;3.57;1.30;;;24.10;49.20;;;-142.21;100.00;57916.31;5072269;28;20304;-78
2022/12/23 08:36:14;;;;;;;1.10;1.00;;;24.10;49.20;;;-142.21;100.00;57916.31;5071308;28;20207;-78
2022/12/23 08:38:41;;;;;;;2.53;1.30;;;24.10;49.30;;;-142.21;100.00;57916.31;5072115;28;20233;-79
2022/12/23 08:41:10;;;;;;;1.30;1.20;;;24.10;49.30;;;-142.21;100.00;57916.31;5071248;28;20213;-78
2022/12/23 08:43:38;;;;;;;1.40;1.10;;;24.10;49.40;;;-142.21;100.00;57916.31;5071579;28;20316;-79
2022/12/23 08:46:09;;;;;;;1.57;1.40;;;24.10;49.40;;;-142.21;100.00;57916.31;5071509;28;20205;-78
2022/12/23 08:48:37;;;;;;;1.40;1.30;;;24.10;49.40;;;-142.21;100.00;57916.31;5072190;28;20415;-78
2022/12/23 08:51:08;;;;;;;0.87;0.87;;;24.00;49.30;;;-142.21;100.00;57916.31;5070432;28;20295;-78
2022/12/23 08:53:37;;;;;;;1.90;1.30;;;24.10;49.40;;;-142.21;100.00;57916.31;5071620;28;20280;-77
2022/12/23 08:56:07;;;;;;;1.10;1.00;;;24.00;49.30;;;-142.21;100.00;57916.31;5070856;28;20299;-77
2022/12/23 08:58:38;;;;;;;1.50;1.40;;;24.00;49.30;;;-142.21;100.00;57916.31;5053994;28;20239;-77
2022/12/23 09:01:08;;;;;;;1.13;1.03;;;24.00;49.40;;;-142.21;100.00;57916.31;5070576;28;20319;-77
2022/12/23 09:03:37;;;;;;;2.03;1.20;;;24.00;49.30;;;-142.21;100.00;57916.31;5053528;28;20209;-77
2022/12/23 09:06:07;;;;;;;1.40;1.10;;;23.90;49.20;;;-142.21;100.00;57916.31;5070979;28;20611;-77
2022/12/23 09:08:35;;;;;;;1.37;0.90;;;24.00;49.40;;;-142.21;100.00;57916.31;5070755;28;20240;-78
2022/12/23 09:11:04;;;;;;;1.53;1.20;;;24.00;49.30;;;-142.21;100.00;57916.31;5053191;28;20718;-78
2022/12/23 09:13:31;;;;;;;1.00;0.90;;;23.90;49.30;;;-142.21;100.00;57916.31;5071749;28;20204;-77
2022/12/23 09:15:58;;;;;;;1.07;1.07;;;23.90;49.20;;;-142.21;100.00;57916.31;5071450;28;20204;-78
2022/12/23 09:18:26;;;;;;;1.20;1.10;;;24.00;49.20;;;-142.21;100.00;57916.31;5070722;28;20321;-78
2022/12/23 09:20:58;;;;;;;2.30;2.10;;;24.00;49.20;;;-142.21;100.00;57916.31;5071176;28;20204;-78
2022/12/23 09:23:27;;;;;;;2.00;1.80;;;24.00;49.30;;;-142.21;100.00;57916.31;5053596;28;20575;-77
2022/12/23 09:25:55;;;;;;;1.70;1.60;;;23.90;49.80;;;-142.21;100.00;57916.31;5071182;28;20240;-77
2022/12/23 09:28:23;;;;;;;1.50;1.40;;;23.90;49.20;;;-142.21;100.00;57916.31;5070322;28;20217;-79
2022/12/23 09:30:50;;;;;;;1.03;0.93;;;23.90;49.20;;;-142.21;100.00;57916.31;5071143;28;20295;-77
2022/12/23 09:33:19;;;;;;;1.77;1.07;;;23.90;49.10;;;-142.21;100.00;57916.31;5070317;28;20209;-77
2022/12/23 09:35:46;;;;;;;1.67;1.20;;;23.90;49.20;;;-142.21;100.00;57916.31;5071311;28;20288;-78
2022/12/23 09:38:13;;;;;;;1.23;1.13;;;23.90;49.20;;;-142.21;100.00;57916.31;5070770;28;20219;-78
2022/12/23 09:40:42;;;;;;;1.37;1.03;;;23.90;49.30;;;-142.21;100.00;57916.31;5071138;28;20240;-78
2022/12/23 09:43:27;;;;;;;1.00;1.00;;;24.00;49.40;;;-142.21;100.00;57916.31;5070297;28;20284;-78
2022/12/23 09:46:08;;;;;;;1.30;1.20;;;23.90;49.50;;;-142.21;100.00;57916.31;5070967;28;20187;-78
2022/12/23 09:48:44;;;;;;;1.30;1.20;;;23.90;49.50;;;-142.21;100.00;57916.31;5069431;28;20208;-77
2022/12/23 09:51:13;;;;;;;0.90;0.90;;;23.90;49.50;;;-142.21;100.00;57916.31;5070552;28;20189;-78
2022/12/23 09:53:54;;;;;;;1.43;1.23;;;23.80;49.40;;;-142.21;100.00;57916.31;5071377;28;20621;-77
2022/12/23 09:56:38;;;;;;;1.20;1.10;;;23.80;49.50;;;-142.21;100.00;57916.31;5070585;28;20199;-77
2022/12/23 09:59:22;;;;;;;1.37;1.23;;;23.80;49.60;;;-142.21;100.00;57916.31;5070586;28;20213;-77
2022/12/23 10:01:59;;;;;;;1.83;1.27;;;23.90;49.70;;;-142.21;100.00;57916.31;5070612;28;20693;-77
2022/12/23 10:04:42;;;;;;;1.40;1.10;;;23.90;49.60;;;-142.21;100.00;57916.31;5070463;28;20722;-77
2022/12/23 10:07:29;;;;;;;1.00;1.00;;;23.80;49.50;;;-142.21;100.00;57916.31;5070437;28;20613;-78
2022/12/23 10:10:06;;;;;;;1.47;0.93;;;23.80;50.20;;;-142.21;100.00;57916.31;5070721;28;20197;-77
2022/12/23 10:12:43;;;;;;;1.13;1.03;;;23.80;49.60;;;-142.21;100.00;57916.31;5070641;28;20242;-78
2022/12/23 10:15:24;;;;;;;0.80;0.80;;;23.80;49.60;;;-142.21;100.00;57916.31;5053969;28;20192;-80
2022/12/23 10:17:59;;;;;;;1.10;1.00;;;23.80;49.60;;;-142.21;100.00;57916.31;5074262;28;20185;-77
2022/12/23 10:20:40;;;;;;;1.27;1.17;;;23.80;49.60;;;-142.21;100.00;57916.31;5055740;28;20216;-77
2022/12/23 10:23:17;;;;;;;1.10;1.00;;;23.80;49.60;;;-142.21;100.00;57916.31;5074146;28;20221;-78
2022/12/23 10:25:52;;;;;;;0.97;0.97;;;23.80;49.60;;;-142.21;100.00;57916.31;5074117;28;20199;-77
2022/12/23 10:28:20;;;;;;;1.00;1.00;;;23.80;49.60;;;-142.21;100.00;57916.31;5073932;28;20197;-77
2022/12/23 10:31:02;;;;;;;1.00;1.00;;;23.80;49.50;;;-142.21;100.00;57916.31;5074163;28;20223;-78
2022/12/23 10:33:42;;;;;;;1.03;1.03;;;23.80;49.70;;;-142.21;100.00;57916.31;5074130;28;20699;-78
2022/12/23 10:36:20;;;;;;;1.00;1.00;;;23.80;49.60;;;-142.21;100.00;57916.31;5073484;28;20292;-77
2022/12/23 10:39:01;;;;;;;0.77;0.77;;;23.80;49.70;;;-142.21;100.00;57916.31;5074144;28;20250;-77
2022/12/23 10:41:41;;;;;;;0.80;0.80;;;23.80;49.70;;;-142.21;100.00;57916.31;5074040;28;20221;-77
2022/12/23 10:44:55;;;;;;;1.20;1.10;;;23.80;49.70;;;-142.21;100.00;57916.31;5056947;28;20418;-77
2022/12/23 10:47:43;;;;;;;1.20;1.10;;;23.80;50.00;;;-142.21;100.00;57916.31;5045937;28;20290;-77
2022/12/23 10:50:51;;;;;;;1.03;1.00;;;23.80;50.40;;;-142.21;100.00;57916.31;5073640;28;20239;-77